sensor_id;sensor_type;location;lat;lon;timestamp;temperature;humidity
30336;DHT22;17142;47.990;7.846;2023-05-07T04:31:28;11.50;99.90
30336;DHT22;17142;47.990;7.846;2023-05-07T04:33:54;11.60;99.90
30336;DHT22;17142;47.990;7.846;2023-05-07T04:36:22;11.70;99.90
30336;DHT22;17142;47.990;7.846;2023-05-07T04:38:47;11.80;99.90
30336;DHT22;17142;47.990;7.846;2023-05-07T04:41:15;11.90;99.90
30336;DHT22;17142;47.990;7.846;2023-05-07T04:43:42;12.10;99.90
30336;DHT22;17142;47.990;7.846;2023-05-07T04:46:08;12.40;99.90
30336;DHT22;17142;47.990;7.846;2023-05-07T04:48:33;12.70;99.90
30336;DHT22;17142;47.990;7.846;2023-05-07T04:51:04;13.20;99.90
30336;DHT22;17142;47.990;7.846;2023-05-07T04:53:30;13.70;99.90
30336;DHT22;17142;47.990;7.846;2023-05-07T04:55:58;14.50;99.90
30336;DHT22;17142;47.990;7.846;2023-05-07T04:58:24;15.30;99.90
30336;DHT22;17142;47.990;7.846;2023-05-07T05:00:49;15.90;99.90
30336;DHT22;17142;47.990;7.846;2023-05-07T05:03:15;16.40;99.90
30336;DHT22;17142;47.990;7.846;2023-05-07T05:05:44;17.00;99.90
30336;DHT22;17142;47.990;7.846;2023-05-07T05:08:10;17.60;99.90
30336;DHT22;17142;47.990;7.846;2023-05-07T05:10:38;17.90;99.90
30336;DHT22;17142;47.990;7.846;2023-05-07T05:13:04;17.90;99.90
30336;DHT22;17142;47.990;7.846;2023-05-07T05:15:29;17.80;99.90
30336;DHT22;17142;47.990;7.846;2023-05-07T05:17:55;17.70;99.90
30336;DHT22;17142;47.990;7.846;2023-05-07T05:20:20;17.70;99.90
30336;DHT22;17142;47.990;7.846;2023-05-07T05:22:46;17.80;99.90
30336;DHT22;17142;47.990;7.846;2023-05-07T05:25:14;17.70;99.90
30336;DHT22;17142;47.990;7.846;2023-05-07T05:27:40;17.40;99.90
30336;DHT22;17142;47.990;7.846;2023-05-07T05:30:06;17.20;99.90
30336;DHT22;17142;47.990;7.846;2023-05-07T05:32:32;17.10;99.90
30336;DHT22;17142;47.990;7.846;2023-05-07T05:34:57;17.10;99.90
30336;DHT22;17142;47.990;7.846;2023-05-07T05:37:23;17.10;99.90
30336;DHT22;17142;47.990;7.846;2023-05-07T05:39:49;17.00;99.90
30336;DHT22;17142;47.990;7.846;2023-05-07T05:42:17;16.90;99.90
30336;DHT22;17142;47.990;7.846;2023-05-07T05:44:42;17.10;99.90
30336;DHT22;17142;47.990;7.846;2023-05-07T05:47:08;17.60;99.90
30336;DHT22;17142;47.990;7.846;2023-05-07T05:49:33;17.70;99.90
30336;DHT22;17142;47.990;7.846;2023-05-07T05:52:00;17.50;99.90
30336;DHT22;17142;47.990;7.846;2023-05-07T05:54:26;17.00;99.90
30336;DHT22;17142;47.990;7.846;2023-05-07T05:56:54;16.70;99.90
30336;DHT22;17142;47.990;7.846;2023-05-07T05:59:19;16.60;99.90
30336;DHT22;17142;47.990;7.846;2023-05-07T06:01:45;17.00;99.90
30336;DHT22;17142;47.990;7.846;2023-05-07T06:04:13;17.50;99.90
30336;DHT22;17142;47.990;7.846;2023-05-07T06:06:41;18.40;99.90
30336;DHT22;17142;47.990;7.846;2023-05-07T06:09:07;19.00;99.90
30336;DHT22;17142;47.990;7.846;2023-05-07T06:11:32;19.10;99.90
30336;DHT22;17142;47.990;7.846;2023-05-07T06:13:58;19.50;99.90
30336;DHT22;17142;47.990;7.846;2023-05-07T06:16:28;20.40;99.90
30336;DHT22;17142;47.990;7.846;2023-05-07T06:18:56;21.40;99.90
30336;DHT22;17142;47.990;7.846;2023-05-07T06:21:21;21.90;98.90
30336;DHT22;17142;47.990;7.846;2023-05-07T06:23:49;21.90;97.20
30336;DHT22;17142;47.990;7.846;2023-05-07T06:26:17;21.40;98.00
30336;DHT22;17142;47.990;7.846;2023-05-07T06:28:45;21.40;98.50
30336;DHT22;17142;47.990;7.846;2023-05-07T06:31:17;21.70;97.00
30336;DHT22;17142;47.990;7.846;2023-05-07T06:33:48;21.60;97.40
30336;DHT22;17142;47.990;7.846;2023-05-07T06:36:16;21.60;96.90
30336;DHT22;17142;47.990;7.846;2023-05-07T06:38:42;21.50;96.30
30336;DHT22;17142;47.990;7.846;2023-05-07T06:41:07;21.10;96.60
30336;DHT22;17142;47.990;7.846;2023-05-07T06:43:33;20.70;97.30
30336;DHT22;17142;47.990;7.846;2023-05-07T06:45:59;20.40;98.10
30336;DHT22;17142;47.990;7.846;2023-05-07T06:48:24;20.40;98.50
30336;DHT22;17142;47.990;7.846;2023-05-07T06:50:50;20.70;98.40
30336;DHT22;17142;47.990;7.846;2023-05-07T06:53:20;21.20;97.60
30336;DHT22;17142;47.990;7.846;2023-05-07T06:55:48;21.70;96.40
30336;DHT22;17142;47.990;7.846;2023-05-07T06:58:13;22.00;95.70
30336;DHT22;17142;47.990;7.846;2023-05-07T07:00:39;22.40;94.80
30336;DHT22;17142;47.990;7.846;2023-05-07T07:03:08;22.80;93.80
30336;DHT22;17142;47.990;7.846;2023-05-07T07:05:34;23.10;93.00
30336;DHT22;17142;47.990;7.846;2023-05-07T07:07:59;23.40;92.00
30336;DHT22;17142;47.990;7.846;2023-05-07T07:10:27;23.70;91.10
30336;DHT22;17142;47.990;7.846;2023-05-07T07:12:55;24.20;90.20
30336;DHT22;17142;47.990;7.846;2023-05-07T07:15:21;24.40;86.10
30336;DHT22;17142;47.990;7.846;2023-05-07T07:17:48;24.40;86.70
30336;DHT22;17142;47.990;7.846;2023-05-07T07:20:13;24.70;83.90
30336;DHT22;17142;47.990;7.846;2023-05-07T07:22:39;24.90;82.30
30336;DHT22;17142;47.990;7.846;2023-05-07T07:25:05;25.00;81.00
30336;DHT22;17142;47.990;7.846;2023-05-07T07:27:30;25.00;78.90
30336;DHT22;17142;47.990;7.846;2023-05-07T07:29:56;24.90;78.70
30336;DHT22;17142;47.990;7.846;2023-05-07T07:32:24;25.00;77.60
30336;DHT22;17142;47.990;7.846;2023-05-07T07:34:50;24.90;77.20
30336;DHT22;17142;47.990;7.846;2023-05-07T07:37:15;24.80;77.80
30336;DHT22;17142;47.990;7.846;2023-05-07T07:39:41;24.70;77.10
30336;DHT22;17142;47.990;7.846;2023-05-07T07:42:09;24.50;77.30
30336;DHT22;17142;47.990;7.846;2023-05-07T07:44:34;24.30;77.40
30336;DHT22;17142;47.990;7.846;2023-05-07T07:47:00;24.00;79.80
30336;DHT22;17142;47.990;7.846;2023-05-07T07:49:26;23.90;79.30
30336;DHT22;17142;47.990;7.846;2023-05-07T07:51:52;23.70;80.20
30336;DHT22;17142;47.990;7.846;2023-05-07T07:54:17;23.50;81.10
30336;DHT22;17142;47.990;7.846;2023-05-07T07:56:43;23.50;81.80
30336;DHT22;17142;47.990;7.846;2023-05-07T07:59:09;23.60;81.40
30336;DHT22;17142;47.990;7.846;2023-05-07T08:01:36;23.60;81.90
30336;DHT22;17142;47.990;7.846;2023-05-07T08:04:07;23.70;82.30
30336;DHT22;17142;47.990;7.846;2023-05-07T08:06:32;23.90;81.80
30336;DHT22;17142;47.990;7.846;2023-05-07T08:09:01;24.30;80.20
30336;DHT22;17142;47.990;7.846;2023-05-07T08:11:26;24.50;77.70
30336;DHT22;17142;47.990;7.846;2023-05-07T08:13:54;24.60;76.70
30336;DHT22;17142;47.990;7.846;2023-05-07T08:16:20;24.60;76.30
30336;DHT22;17142;47.990;7.846;2023-05-07T08:18:46;24.30;76.80
30336;DHT22;17142;47.990;7.846;2023-05-07T08:21:14;24.20;76.70
30336;DHT22;17142;47.990;7.846;2023-05-07T08:23:42;23.90;77.20
30336;DHT22;17142;47.990;7.846;2023-05-07T08:26:10;23.50;78.20
30336;DHT22;17142;47.990;7.846;2023-05-07T08:28:35;23.50;79.40
30336;DHT22;17142;47.990;7.846;2023-05-07T08:31:01;23.60;78.40
30336;DHT22;17142;47.990;7.846;2023-05-07T08:33:27;23.80;77.40
30336;DHT22;17142;47.990;7.846;2023-05-07T08:35:52;23.90;77.00
30336;DHT22;17142;47.990;7.846;2023-05-07T08:38:20;24.00;76.30
30336;DHT22;17142;47.990;7.846;2023-05-07T08:40:46;23.70;76.00
30336;DHT22;17142;47.990;7.846;2023-05-07T08:43:18;23.60;77.00
30336;DHT22;17142;47.990;7.846;2023-05-07T08:45:47;23.50;77.80
30336;DHT22;17142;47.990;7.846;2023-05-07T08:48:17;23.50;79.90
30336;DHT22;17142;47.990;7.846;2023-05-07T08:50:43;23.60;79.10
30336;DHT22;17142;47.990;7.846;2023-05-07T08:53:09;23.40;79.90
30336;DHT22;17142;47.990;7.846;2023-05-07T08:55:34;23.10;80.60
30336;DHT22;17142;47.990;7.846;2023-05-07T08:58:00;23.00;81.90
30336;DHT22;17142;47.990;7.846;2023-05-07T09:00:26;23.10;83.30
30336;DHT22;17142;47.990;7.846;2023-05-07T09:02:56;23.20;83.00
30336;DHT22;17142;47.990;7.846;2023-05-07T09:05:21;23.30;83.70
30336;DHT22;17142;47.990;7.846;2023-05-07T09:07:49;23.50;84.70
30336;DHT22;17142;47.990;7.846;2023-05-07T09:10:15;23.80;83.10
30336;DHT22;17142;47.990;7.846;2023-05-07T09:12:41;24.10;83.00
30336;DHT22;17142;47.990;7.846;2023-05-07T09:15:07;24.20;82.60
30336;DHT22;17142;47.990;7.846;2023-05-07T09:17:33;24.20;82.80
30336;DHT22;17142;47.990;7.846;2023-05-07T09:20:03;24.30;83.40
30336;DHT22;17142;47.990;7.846;2023-05-07T09:22:32;24.50;82.40
30336;DHT22;17142;47.990;7.846;2023-05-07T09:24:58;24.60;82.50
30336;DHT22;17142;47.990;7.846;2023-05-07T09:27:25;24.70;82.10
30336;DHT22;17142;47.990;7.846;2023-05-07T09:29:51;24.80;79.90
30336;DHT22;17142;47.990;7.846;2023-05-07T09:32:17;24.90;80.20
30336;DHT22;17142;47.990;7.846;2023-05-07T09:34:43;25.00;79.40
30336;DHT22;17142;47.990;7.846;2023-05-07T09:37:12;24.90;78.40
30336;DHT22;17142;47.990;7.846;2023-05-07T09:42:10;24.60;78.50
30336;DHT22;17142;47.990;7.846;2023-05-07T09:44:41;24.40;78.10
30336;DHT22;17142;47.990;7.846;2023-05-07T09:47:10;24.40;79.50
30336;DHT22;17142;47.990;7.846;2023-05-07T09:49:39;24.50;79.40
30336;DHT22;17142;47.990;7.846;2023-05-07T09:52:09;24.40;79.30
30336;DHT22;17142;47.990;7.846;2023-05-07T09:54:36;24.20;81.00
30336;DHT22;17142;47.990;7.846;2023-05-07T09:57:04;24.20;80.80
30336;DHT22;17142;47.990;7.846;2023-05-07T09:59:31;24.00;81.10
30336;DHT22;17142;47.990;7.846;2023-05-07T10:01:58;23.80;82.00
30336;DHT22;17142;47.990;7.846;2023-05-07T10:04:27;23.60;83.30
30336;DHT22;17142;47.990;7.846;2023-05-07T10:06:54;23.40;83.50
30336;DHT22;17142;47.990;7.846;2023-05-07T10:09:20;23.10;84.60
30336;DHT22;17142;47.990;7.846;2023-05-07T10:11:48;22.70;84.90
30336;DHT22;17142;47.990;7.846;2023-05-07T10:14:20;22.30;87.60
30336;DHT22;17142;47.990;7.846;2023-05-07T10:16:47;22.00;89.70
30336;DHT22;17142;47.990;7.846;2023-05-07T10:19:14;21.60;90.70
30336;DHT22;17142;47.990;7.846;2023-05-07T10:21:54;21.20;92.80
30336;DHT22;17142;47.990;7.846;2023-05-07T10:24:25;20.80;95.90
30336;DHT22;17142;47.990;7.846;2023-05-07T10:26:52;20.20;99.30
30336;DHT22;17142;47.990;7.846;2023-05-07T10:29:21;19.70;99.90
30336;DHT22;17142;47.990;7.846;2023-05-07T10:34:37;18.50;99.90
30336;DHT22;17142;47.990;7.846;2023-05-07T10:37:04;17.90;99.90
30336;DHT22;17142;47.990;7.846;2023-05-07T10:39:30;17.50;99.90
30336;DHT22;17142;47.990;7.846;2023-05-07T10:41:56;17.20;99.90
30336;DHT22;17142;47.990;7.846;2023-05-07T10:44:29;16.90;99.90
30336;DHT22;17142;47.990;7.846;2023-05-07T10:47:20;16.80;99.90
30336;DHT22;17142;47.990;7.846;2023-05-07T10:52:21;16.80;99.90
30336;DHT22;17142;47.990;7.846;2023-05-07T10:57:45;17.20;99.90
30336;DHT22;17142;47.990;7.846;2023-05-07T11:05:26;18.20;99.90
30336;DHT22;17142;47.990;7.846;2023-05-07T11:08:00;18.50;99.90
30336;DHT22;17142;47.990;7.846;2023-05-07T11:10:49;19.00;99.90
30336;DHT22;17142;47.990;7.846;2023-05-07T11:13:15;19.50;99.90
30336;DHT22;17142;47.990;7.846;2023-05-07T11:15:46;20.00;99.90
30336;DHT22;17142;47.990;7.846;2023-05-07T11:18:14;20.40;99.90
30336;DHT22;17142;47.990;7.846;2023-05-07T11:26:06;21.20;99.90
30336;DHT22;17142;47.990;7.846;2023-05-07T11:28:40;21.30;99.90
30336;DHT22;17142;47.990;7.846;2023-05-07T11:31:06;21.10;99.90
30336;DHT22;17142;47.990;7.846;2023-05-07T11:33:35;21.10;99.90
30336;DHT22;17142;47.990;7.846;2023-05-07T11:36:03;21.10;99.90
30336;DHT22;17142;47.990;7.846;2023-05-07T11:38:29;21.50;99.90
30336;DHT22;17142;47.990;7.846;2023-05-07T11:40:59;21.70;99.90
30336;DHT22;17142;47.990;7.846;2023-05-07T11:43:26;22.10;99.90
30336;DHT22;17142;47.990;7.846;2023-05-07T11:45:52;21.90;99.90
30336;DHT22;17142;47.990;7.846;2023-05-07T11:48:18;21.60;99.90
30336;DHT22;17142;47.990;7.846;2023-05-07T11:50:51;21.40;99.90
30336;DHT22;17142;47.990;7.846;2023-05-07T11:53:18;21.40;99.90
30336;DHT22;17142;47.990;7.846;2023-05-07T11:55:48;21.50;99.90
30336;DHT22;17142;47.990;7.846;2023-05-07T11:58:21;21.50;99.90
30336;DHT22;17142;47.990;7.846;2023-05-07T12:00:51;21.40;99.90
30336;DHT22;17142;47.990;7.846;2023-05-07T12:03:17;21.20;99.90
30336;DHT22;17142;47.990;7.846;2023-05-07T12:05:46;21.20;99.90
30336;DHT22;17142;47.990;7.846;2023-05-07T12:08:16;21.10;99.90
30336;DHT22;17142;47.990;7.846;2023-05-07T12:10:47;21.10;99.90
30336;DHT22;17142;47.990;7.846;2023-05-07T12:13:20;20.90;99.90
30336;DHT22;17142;47.990;7.846;2023-05-07T12:15:46;20.90;99.90
30336;DHT22;17142;47.990;7.846;2023-05-07T12:18:18;21.10;99.90
30336;DHT22;17142;47.990;7.846;2023-05-07T12:20:44;21.60;99.90
30336;DHT22;17142;47.990;7.846;2023-05-07T12:23:11;21.90;99.90
30336;DHT22;17142;47.990;7.846;2023-05-07T12:25:39;21.80;99.90
30336;DHT22;17142;47.990;7.846;2023-05-07T12:28:07;21.80;99.90
30336;DHT22;17142;47.990;7.846;2023-05-07T12:30:42;21.80;99.90
30336;DHT22;17142;47.990;7.846;2023-05-07T12:33:09;22.00;99.90
30336;DHT22;17142;47.990;7.846;2023-05-07T12:35:42;21.90;99.90
30336;DHT22;17142;47.990;7.846;2023-05-07T12:38:16;21.80;99.90
30336;DHT22;17142;47.990;7.846;2023-05-07T12:40:47;21.80;99.90
30336;DHT22;17142;47.990;7.846;2023-05-07T12:43:34;22.10;99.90
30336;DHT22;17142;47.990;7.846;2023-05-07T12:46:03;22.20;99.90
30336;DHT22;17142;47.990;7.846;2023-05-07T12:48:31;22.20;99.90
30336;DHT22;17142;47.990;7.846;2023-05-07T12:51:00;22.30;99.90
30336;DHT22;17142;47.990;7.846;2023-05-07T12:53:28;22.40;99.90
30336;DHT22;17142;47.990;7.846;2023-05-07T12:55:56;22.40;99.90
30336;DHT22;17142;47.990;7.846;2023-05-07T12:58:28;22.30;99.90
30336;DHT22;17142;47.990;7.846;2023-05-07T13:00:55;22.40;99.90
30336;DHT22;17142;47.990;7.846;2023-05-07T13:03:29;22.60;99.90
30336;DHT22;17142;47.990;7.846;2023-05-07T13:05:58;22.80;99.90
30336;DHT22;17142;47.990;7.846;2023-05-07T13:10:53;23.30;99.20
30336;DHT22;17142;47.990;7.846;2023-05-07T13:13:22;23.50;99.30
30336;DHT22;17142;47.990;7.846;2023-05-07T13:15:48;23.40;98.30
30336;DHT22;17142;47.990;7.846;2023-05-07T13:18:14;23.30;98.00
30336;DHT22;17142;47.990;7.846;2023-05-07T13:20:39;23.10;98.40
30336;DHT22;17142;47.990;7.846;2023-05-07T13:23:06;23.00;98.00
30336;DHT22;17142;47.990;7.846;2023-05-07T13:25:31;22.70;98.90
30336;DHT22;17142;47.990;7.846;2023-05-07T13:27:57;22.70;99.90
30336;DHT22;17142;47.990;7.846;2023-05-07T13:30:23;22.70;99.40
30336;DHT22;17142;47.990;7.846;2023-05-07T13:32:54;22.80;99.00
30336;DHT22;17142;47.990;7.846;2023-05-07T13:35:20;23.00;98.60
30336;DHT22;17142;47.990;7.846;2023-05-07T13:37:46;22.80;98.70
30336;DHT22;17142;47.990;7.846;2023-05-07T13:40:13;22.60;98.90
30336;DHT22;17142;47.990;7.846;2023-05-07T13:42:39;22.30;99.50
30336;DHT22;17142;47.990;7.846;2023-05-07T13:45:05;22.20;99.90
30336;DHT22;17142;47.990;7.846;2023-05-07T13:47:31;21.90;99.90
30336;DHT22;17142;47.990;7.846;2023-05-07T13:49:56;21.90;99.90
30336;DHT22;17142;47.990;7.846;2023-05-07T13:52:22;21.90;99.90
30336;DHT22;17142;47.990;7.846;2023-05-07T13:54:48;22.00;99.90
30336;DHT22;17142;47.990;7.846;2023-05-07T13:57:16;22.20;99.90
30336;DHT22;17142;47.990;7.846;2023-05-07T13:59:44;22.30;99.90
30336;DHT22;17142;47.990;7.846;2023-05-07T14:02:10;22.50;99.90
30336;DHT22;17142;47.990;7.846;2023-05-07T14:04:37;22.60;99.90
30336;DHT22;17142;47.990;7.846;2023-05-07T14:07:05;22.70;99.90
30336;DHT22;17142;47.990;7.846;2023-05-07T14:09:30;22.70;99.90
30336;DHT22;17142;47.990;7.846;2023-05-07T14:11:59;22.60;99.90
30336;DHT22;17142;47.990;7.846;2023-05-07T14:14:24;22.40;99.90
30336;DHT22;17142;47.990;7.846;2023-05-07T14:16:50;22.30;99.90
30336;DHT22;17142;47.990;7.846;2023-05-07T14:19:16;22.30;99.90
30336;DHT22;17142;47.990;7.846;2023-05-07T14:21:41;22.40;99.90
30336;DHT22;17142;47.990;7.846;2023-05-07T14:24:07;22.50;99.80
30336;DHT22;17142;47.990;7.846;2023-05-07T14:26:34;22.70;98.70
30336;DHT22;17142;47.990;7.846;2023-05-07T14:29:02;22.60;99.40
30336;DHT22;17142;47.990;7.846;2023-05-07T14:31:28;22.70;99.10
30336;DHT22;17142;47.990;7.846;2023-05-07T14:33:54;22.90;97.60
30336;DHT22;17142;47.990;7.846;2023-05-07T14:36:23;23.10;97.50
30336;DHT22;17142;47.990;7.846;2023-05-07T14:38:52;23.10;97.30
30336;DHT22;17142;47.990;7.846;2023-05-07T14:41:22;23.20;96.50
30336;DHT22;17142;47.990;7.846;2023-05-07T14:43:47;23.30;95.30
30336;DHT22;17142;47.990;7.846;2023-05-07T14:46:18;23.60;95.00
30336;DHT22;17142;47.990;7.846;2023-05-07T14:48:47;23.80;94.60
30336;DHT22;17142;47.990;7.846;2023-05-07T14:51:20;23.80;93.80
30336;DHT22;17142;47.990;7.846;2023-05-07T14:53:46;23.50;93.80
30336;DHT22;17142;47.990;7.846;2023-05-07T14:56:12;23.20;95.20
30336;DHT22;17142;47.990;7.846;2023-05-07T14:58:40;23.00;94.80
30336;DHT22;17142;47.990;7.846;2023-05-07T15:01:08;22.90;94.40
30336;DHT22;17142;47.990;7.846;2023-05-07T15:03:34;22.90;93.60
30336;DHT22;17142;47.990;7.846;2023-05-07T15:06:00;23.00;91.80
30336;DHT22;17142;47.990;7.846;2023-05-07T15:08:25;22.90;89.40
30336;DHT22;17142;47.990;7.846;2023-05-07T15:10:54;22.80;87.20
30336;DHT22;17142;47.990;7.846;2023-05-07T15:13:20;22.70;89.20
30336;DHT22;17142;47.990;7.846;2023-05-07T15:15:51;22.60;90.00
30336;DHT22;17142;47.990;7.846;2023-05-07T15:18:16;22.50;90.70
30336;DHT22;17142;47.990;7.846;2023-05-07T15:20:42;22.50;90.60
30336;DHT22;17142;47.990;7.846;2023-05-07T15:23:10;22.40;89.90
30336;DHT22;17142;47.990;7.846;2023-05-07T15:25:37;22.20;90.30
30336;DHT22;17142;47.990;7.846;2023-05-07T15:28:05;22.10;91.30
30336;DHT22;17142;47.990;7.846;2023-05-07T15:30:32;22.00;91.90
30336;DHT22;17142;47.990;7.846;2023-05-07T15:33:01;22.10;91.90
30336;DHT22;17142;47.990;7.846;2023-05-07T15:35:30;22.10;91.90
30336;DHT22;17142;47.990;7.846;2023-05-07T15:37:55;22.20;92.30
30336;DHT22;17142;47.990;7.846;2023-05-07T15:40:21;22.30;91.90
30336;DHT22;17142;47.990;7.846;2023-05-07T15:42:47;22.50;91.60
30336;DHT22;17142;47.990;7.846;2023-05-07T15:45:15;22.70;91.30
30336;DHT22;17142;47.990;7.846;2023-05-07T15:47:40;22.70;91.50
30336;DHT22;17142;47.990;7.846;2023-05-07T15:50:09;22.70;91.10
30336;DHT22;17142;47.990;7.846;2023-05-07T15:52:34;22.60;90.80
30336;DHT22;17142;47.990;7.846;2023-05-07T15:55:00;22.70;90.70
30336;DHT22;17142;47.990;7.846;2023-05-07T15:57:27;22.70;90.50
30336;DHT22;17142;47.990;7.846;2023-05-07T15:59:58;22.70;90.20
30336;DHT22;17142;47.990;7.846;2023-05-07T16:02:26;22.70;90.00
30336;DHT22;17142;47.990;7.846;2023-05-07T16:04:54;22.70;89.60
30336;DHT22;17142;47.990;7.846;2023-05-07T16:07:20;22.70;89.10
30336;DHT22;17142;47.990;7.846;2023-05-07T16:09:46;22.60;88.10
30336;DHT22;17142;47.990;7.846;2023-05-07T16:12:12;22.40;88.70
30336;DHT22;17142;47.990;7.846;2023-05-07T16:14:37;22.30;89.20
30336;DHT22;17142;47.990;7.846;2023-05-07T16:17:03;22.20;88.60
30336;DHT22;17142;47.990;7.846;2023-05-07T16:19:29;22.00;89.40
30336;DHT22;17142;47.990;7.846;2023-05-07T16:21:59;21.80;90.10
30336;DHT22;17142;47.990;7.846;2023-05-07T16:24:25;21.60;90.30
30336;DHT22;17142;47.990;7.846;2023-05-07T16:26:50;21.50;91.00
30336;DHT22;17142;47.990;7.846;2023-05-07T16:29:16;21.40;91.20
30336;DHT22;17142;47.990;7.846;2023-05-07T16:31:41;21.40;91.40
30336;DHT22;17142;47.990;7.846;2023-05-07T16:34:09;21.30;91.60
30336;DHT22;17142;47.990;7.846;2023-05-07T16:36:35;21.30;91.90
30336;DHT22;17142;47.990;7.846;2023-05-07T16:39:05;21.40;92.00
30336;DHT22;17142;47.990;7.846;2023-05-07T16:41:33;21.50;91.60
30336;DHT22;17142;47.990;7.846;2023-05-07T16:43:59;21.50;90.80
30336;DHT22;17142;47.990;7.846;2023-05-07T16:46:25;21.50;91.20
30336;DHT22;17142;47.990;7.846;2023-05-07T16:48:53;21.40;91.80
30336;DHT22;17142;47.990;7.846;2023-05-07T16:51:18;21.40;92.00
30336;DHT22;17142;47.990;7.846;2023-05-07T16:53:44;21.30;92.10
30336;DHT22;17142;47.990;7.846;2023-05-07T16:56:10;21.20;92.20
30336;DHT22;17142;47.990;7.846;2023-05-07T16:58:35;21.20;91.90
30336;DHT22;17142;47.990;7.846;2023-05-07T17:01:01;21.20;91.60
30336;DHT22;17142;47.990;7.846;2023-05-07T17:03:27;21.10;91.70
30336;DHT22;17142;47.990;7.846;2023-05-07T17:05:53;21.00;91.80
30336;DHT22;17142;47.990;7.846;2023-05-07T17:08:20;21.00;92.00
30336;DHT22;17142;47.990;7.846;2023-05-07T17:10:46;21.00;92.20
30336;DHT22;17142;47.990;7.846;2023-05-07T17:13:12;21.00;92.50
30336;DHT22;17142;47.990;7.846;2023-05-07T17:15:37;21.00;93.30
30336;DHT22;17142;47.990;7.846;2023-05-07T17:18:05;20.90;93.90
30336;DHT22;17142;47.990;7.846;2023-05-07T17:20:34;20.80;94.30
30336;DHT22;17142;47.990;7.846;2023-05-07T17:23:04;20.80;95.60
30336;DHT22;17142;47.990;7.846;2023-05-07T17:25:34;20.70;97.60
30336;DHT22;17142;47.990;7.846;2023-05-07T17:28:01;20.50;98.40
30336;DHT22;17142;47.990;7.846;2023-05-07T17:30:26;20.50;99.20
30336;DHT22;17142;47.990;7.846;2023-05-07T17:32:54;20.30;99.70
30336;DHT22;17142;47.990;7.846;2023-05-07T17:35:21;20.20;99.90
30336;DHT22;17142;47.990;7.846;2023-05-07T17:37:47;20.10;99.90
30336;DHT22;17142;47.990;7.846;2023-05-07T17:40:18;20.00;99.90
30336;DHT22;17142;47.990;7.846;2023-05-07T17:42:44;19.90;99.90
30336;DHT22;17142;47.990;7.846;2023-05-07T17:45:10;19.80;99.90
30336;DHT22;17142;47.990;7.846;2023-05-07T17:47:39;19.70;99.90
30336;DHT22;17142;47.990;7.846;2023-05-07T17:50:06;19.60;99.90
30336;DHT22;17142;47.990;7.846;2023-05-07T17:52:39;19.50;99.90
30336;DHT22;17142;47.990;7.846;2023-05-07T17:55:05;19.40;99.90
30336;DHT22;17142;47.990;7.846;2023-05-07T17:57:33;19.40;99.90
30336;DHT22;17142;47.990;7.846;2023-05-07T18:00:02;19.30;99.90
30336;DHT22;17142;47.990;7.846;2023-05-07T18:02:28;19.20;99.90
30336;DHT22;17142;47.990;7.846;2023-05-07T18:04:57;19.10;99.90
30336;DHT22;17142;47.990;7.846;2023-05-07T18:07:23;19.10;99.90
30336;DHT22;17142;47.990;7.846;2023-05-07T18:09:49;19.00;99.90
30336;DHT22;17142;47.990;7.846;2023-05-07T18:12:14;19.00;99.90
30336;DHT22;17142;47.990;7.846;2023-05-07T18:14:40;18.90;99.90
30336;DHT22;17142;47.990;7.846;2023-05-07T18:17:08;18.90;99.90
30336;DHT22;17142;47.990;7.846;2023-05-07T18:19:33;18.80;99.90
30336;DHT22;17142;47.990;7.846;2023-05-07T18:21:59;18.80;99.90
30336;DHT22;17142;47.990;7.846;2023-05-07T18:24:25;18.70;99.90
30336;DHT22;17142;47.990;7.846;2023-05-07T18:26:51;18.70;99.90
30336;DHT22;17142;47.990;7.846;2023-05-07T18:29:17;18.70;99.90
30336;DHT22;17142;47.990;7.846;2023-05-07T18:31:42;18.60;99.90
30336;DHT22;17142;47.990;7.846;2023-05-07T18:34:10;18.60;99.90
30336;DHT22;17142;47.990;7.846;2023-05-07T18:36:36;18.50;99.90
30336;DHT22;17142;47.990;7.846;2023-05-07T18:39:02;18.50;99.90
30336;DHT22;17142;47.990;7.846;2023-05-07T18:41:28;18.50;99.90
30336;DHT22;17142;47.990;7.846;2023-05-07T18:43:56;18.40;99.90
30336;DHT22;17142;47.990;7.846;2023-05-07T18:46:21;18.30;99.90
30336;DHT22;17142;47.990;7.846;2023-05-07T18:48:49;18.30;99.90
30336;DHT22;17142;47.990;7.846;2023-05-07T18:51:19;18.20;99.90
30336;DHT22;17142;47.990;7.846;2023-05-07T18:53:44;18.00;99.90
30336;DHT22;17142;47.990;7.846;2023-05-07T18:56:12;18.00;99.90
30336;DHT22;17142;47.990;7.846;2023-05-07T18:58:38;17.90;99.90
30336;DHT22;17142;47.990;7.846;2023-05-07T19:01:03;17.80;99.90
30336;DHT22;17142;47.990;7.846;2023-05-07T19:03:33;17.70;99.90
30336;DHT22;17142;47.990;7.846;2023-05-07T19:05:59;17.60;99.90
30336;DHT22;17142;47.990;7.846;2023-05-07T19:08:25;17.50;99.90
30336;DHT22;17142;47.990;7.846;2023-05-07T19:10:50;17.40;99.90
30336;DHT22;17142;47.990;7.846;2023-05-07T19:13:19;17.30;99.90
30336;DHT22;17142;47.990;7.846;2023-05-07T19:15:45;17.20;99.90
30336;DHT22;17142;47.990;7.846;2023-05-07T19:18:10;17.10;99.90
30336;DHT22;17142;47.990;7.846;2023-05-07T19:20:41;17.00;99.90
30336;DHT22;17142;47.990;7.846;2023-05-07T19:23:06;17.00;99.90
30336;DHT22;17142;47.990;7.846;2023-05-07T19:25:36;16.90;99.90
30336;DHT22;17142;47.990;7.846;2023-05-07T19:28:02;16.90;99.90
30336;DHT22;17142;47.990;7.846;2023-05-07T19:30:28;16.90;99.90
30336;DHT22;17142;47.990;7.846;2023-05-07T19:32:53;16.90;99.90
30336;DHT22;17142;47.990;7.846;2023-05-07T19:35:19;16.90;99.90
30336;DHT22;17142;47.990;7.846;2023-05-07T19:37:45;16.80;99.90
30336;DHT22;17142;47.990;7.846;2023-05-07T19:40:11;16.80;99.90
30336;DHT22;17142;47.990;7.846;2023-05-07T19:42:36;16.80;99.90
30336;DHT22;17142;47.990;7.846;2023-05-07T19:45:05;16.70;99.90
30336;DHT22;17142;47.990;7.846;2023-05-07T19:47:31;16.70;99.90
30336;DHT22;17142;47.990;7.846;2023-05-07T19:49:57;16.70;99.90
30336;DHT22;17142;47.990;7.846;2023-05-07T19:52:22;16.60;99.90
30336;DHT22;17142;47.990;7.846;2023-05-07T19:54:48;16.60;99.90
30336;DHT22;17142;47.990;7.846;2023-05-07T19:57:16;16.60;99.90
30336;DHT22;17142;47.990;7.846;2023-05-07T19:59:45;16.60;99.90
30336;DHT22;17142;47.990;7.846;2023-05-07T20:02:11;16.60;99.90
30336;DHT22;17142;47.990;7.846;2023-05-07T20:04:37;16.60;99.90
30336;DHT22;17142;47.990;7.846;2023-05-07T20:07:03;16.50;99.90
30336;DHT22;17142;47.990;7.846;2023-05-07T20:09:32;16.50;99.90
30336;DHT22;17142;47.990;7.846;2023-05-07T20:12:00;16.50;99.90
30336;DHT22;17142;47.990;7.846;2023-05-07T20:14:26;16.50;99.90
30336;DHT22;17142;47.990;7.846;2023-05-07T20:16:51;16.50;99.90
30336;DHT22;17142;47.990;7.846;2023-05-07T20:19:17;16.40;99.90
30336;DHT22;17142;47.990;7.846;2023-05-07T20:21:43;16.40;99.90
30336;DHT22;17142;47.990;7.846;2023-05-07T20:24:11;16.40;99.90